Time;durP1;ratioP1;P1;durP2;ratioP2;P2;SDS_P1;SDS_P2;PMS_P1;PMS_P2;Temp;Humidity;BMP_temperature;BMP_pressure;BME280_temperature;BME280_humidity;BME280_pressure;Samples;Min_cycle;Max_cycle;Signal;HPM_P1;HPM_P2
2024/01/14 00:00:12;;;;;;;24.23;14.80;;;-3.00;99.90;;;;;;5054888;28;20173;-80
2024/01/14 00:02:38;;;;;;;21.63;14.67;;;-2.60;99.90;;;;;;5053730;28;20307;-80
2024/01/14 00:05:08;;;;;;;20.07;13.70;;;-2.50;99.90;;;;;;5054959;28;20175;-78
2024/01/14 00:07:39;;;;;;;22.70;14.47;;;-2.50;99.90;;;;;;5060873;28;20234;-79
2024/01/14 00:10:05;;;;;;;23.37;14.67;;;-2.50;99.90;;;;;;5060077;28;20539;-79
2024/01/14 00:12:31;;;;;;;21.67;13.30;;;-2.50;99.90;;;;;;5055670;28;20227;-77
2024/01/14 00:14:57;;;;;;;21.10;14.13;;;-2.60;99.90;;;;;;5054687;28;20176;-79
2024/01/14 00:17:23;;;;;;;22.47;14.67;;;-2.60;99.90;;;;;;5055197;28;20207;-79
2024/01/14 00:19:50;;;;;;;22.40;14.30;;;-2.50;99.90;;;;;;5065204;28;20180;-78
2024/01/14 00:22:16;;;;;;;19.70;14.17;;;-2.50;99.90;;;;;;5056982;28;20265;-80
2024/01/14 00:24:43;;;;;;;21.63;14.47;;;-2.50;99.90;;;;;;5065381;28;20207;-79
2024/01/14 00:27:08;;;;;;;23.23;15.20;;;-2.30;99.90;;;;;;5057095;28;20172;-79
2024/01/14 00:29:36;;;;;;;21.43;14.30;;;-2.50;99.90;;;;;;5068280;28;20232;-78
2024/01/14 00:32:02;;;;;;;22.17;14.33;;;-2.40;99.90;;;;;;5069284;28;20623;-79
2024/01/14 00:34:28;;;;;;;20.60;13.67;;;-2.30;99.90;;;;;;5065962;28;20690;-81
2024/01/14 00:36:53;;;;;;;22.40;13.63;;;-2.40;99.90;;;;;;5071534;28;20252;-79
2024/01/14 00:39:19;;;;;;;20.27;14.53;;;-2.50;99.90;;;;;;5057879;28;20219;-78
2024/01/14 00:41:45;;;;;;;19.10;13.63;;;-2.30;99.90;;;;;;5055182;28;20180;-79
2024/01/14 00:44:11;;;;;;;24.50;14.67;;;-2.40;99.90;;;;;;5053815;28;20215;-80
2024/01/14 00:46:37;;;;;;;20.50;14.10;;;-2.30;99.90;;;;;;5054254;28;20164;-80
2024/01/14 00:49:03;;;;;;;22.00;14.20;;;-2.10;99.90;;;;;;5055155;28;20183;-77
2024/01/14 00:51:29;;;;;;;23.90;15.53;;;-2.30;99.90;;;;;;5052392;28;20272;-81
2024/01/14 00:53:55;;;;;;;24.77;15.27;;;-2.40;99.90;;;;;;5054694;28;20538;-80
2024/01/14 00:56:20;;;;;;;25.57;15.23;;;-2.30;99.90;;;;;;5054009;28;20214;-80
2024/01/14 00:58:46;;;;;;;24.33;15.20;;;-2.10;99.90;;;;;;5054507;28;20175;-78
2024/01/14 01:01:12;;;;;;;25.23;15.13;;;-2.20;99.90;;;;;;5068729;28;20187;-77
2024/01/14 01:03:38;;;;;;;23.43;15.30;;;-2.40;99.90;;;;;;5070288;28;20212;-79
2024/01/14 01:06:03;;;;;;;25.60;15.50;;;-2.00;99.90;;;;;;5054500;28;20179;-79
2024/01/14 01:08:29;;;;;;;24.00;14.73;;;-2.00;99.90;;;;;;5053443;28;20175;-78
2024/01/14 01:10:55;;;;;;;21.00;14.23;;;-1.80;99.90;;;;;;5053005;28;20211;-79
2024/01/14 01:13:21;;;;;;;23.67;15.37;;;-1.80;99.90;;;;;;5053465;28;20608;-77
2024/01/14 01:15:46;;;;;;;25.40;15.73;;;-1.90;99.90;;;;;;5053456;28;20704;-79
2024/01/14 01:18:12;;;;;;;23.87;14.97;;;-1.80;99.90;;;;;;5052520;28;20658;-77
2024/01/14 01:20:38;;;;;;;26.77;16.33;;;-1.80;99.90;;;;;;5051748;28;20184;-79
2024/01/14 01:23:04;;;;;;;25.67;15.83;;;-2.20;99.90;;;;;;5054976;28;20234;-79
2024/01/14 01:25:30;;;;;;;22.60;16.07;;;-1.80;99.90;;;;;;5060361;28;20198;-78
2024/01/14 01:27:56;;;;;;;26.53;16.07;;;-2.20;99.90;;;;;;5059276;28;20187;-78
2024/01/14 01:30:22;;;;;;;24.23;16.70;;;-1.90;99.90;;;;;;5056369;28;20168;-78
2024/01/14 01:32:49;;;;;;;27.20;16.83;;;-1.90;99.90;;;;;;5053093;28;20654;-81
2024/01/14 01:35:15;;;;;;;26.13;16.40;;;-1.90;99.90;;;;;;5053069;28;20646;-81
2024/01/14 01:37:41;;;;;;;25.03;16.33;;;-1.70;99.90;;;;;;5053038;28;20274;-77
2024/01/14 01:40:09;;;;;;;23.87;15.27;;;-1.70;99.90;;;;;;5053875;28;20267;-79
2024/01/14 01:42:35;;;;;;;30.47;16.03;;;-1.70;99.90;;;;;;5053443;28;20211;-80
2024/01/14 01:45:01;;;;;;;25.47;17.67;;;-1.80;99.90;;;;;;5052367;28;20690;-77
2024/01/14 01:47:27;;;;;;;25.27;15.57;;;-1.90;99.90;;;;;;5052106;28;20180;-79
2024/01/14 01:49:53;;;;;;;28.67;16.97;;;-1.80;99.90;;;;;;5056171;28;20176;-78
2024/01/14 01:52:19;;;;;;;23.13;15.90;;;-1.70;99.90;;;;;;5055328;28;20689;-80
2024/01/14 01:54:47;;;;;;;24.03;15.80;;;-1.60;99.90;;;;;;5054322;28;20270;-80
2024/01/14 01:57:13;;;;;;;25.63;16.43;;;-1.90;99.90;;;;;;5053086;28;20176;-79
2024/01/14 01:59:43;;;;;;;27.17;16.10;;;-1.50;99.90;;;;;;5053157;28;20183;-78
2024/01/14 02:02:09;;;;;;;26.63;16.87;;;-1.60;99.90;;;;;;5055125;28;20168;-79
2024/01/14 02:04:36;;;;;;;27.87;16.90;;;-1.90;99.90;;;;;;5068627;28;20184;-79
2024/01/14 02:07:02;;;;;;;26.03;16.67;;;-1.80;99.90;;;;;;5058720;28;20180;-78
2024/01/14 02:09:28;;;;;;;28.47;16.37;;;-2.10;99.90;;;;;;5057201;28;20255;-77
2024/01/14 02:11:54;;;;;;;27.00;16.27;;;-1.90;99.90;;;;;;5057818;28;20228;-80
2024/01/14 02:14:20;;;;;;;26.93;17.10;;;-1.80;99.90;;;;;;5056416;28;20184;-78
2024/01/14 02:16:46;;;;;;;27.50;16.83;;;-2.00;99.90;;;;;;5056913;28;20176;-78
2024/01/14 02:19:11;;;;;;;30.30;17.07;;;-2.00;99.90;;;;;;5059021;28;20200;-78
2024/01/14 02:21:45;;;;;;;27.80;16.90;;;-1.90;99.90;;;;;;5065613;28;20192;-76
2024/01/14 02:24:30;;;;;;;26.87;15.80;;;-1.80;99.90;;;;;;5062749;28;20208;-76
2024/01/14 02:26:57;;;;;;;28.33;17.40;;;-1.90;99.90;;;;;;5058430;28;20167;-78
2024/01/14 02:29:23;;;;;;;24.10;16.43;;;-1.90;99.90;;;;;;5065699;28;20227;-76
2024/01/14 02:31:49;;;;;;;29.70;17.40;;;-1.70;99.90;;;;;;5068210;28;20272;-78
2024/01/14 02:34:15;;;;;;;26.83;16.03;;;-2.00;99.90;;;;;;5057278;28;20219;-78
2024/01/14 02:36:41;;;;;;;31.47;17.07;;;-2.00;99.90;;;;;;5057679;28;20589;-79
2024/01/14 02:39:07;;;;;;;27.30;16.60;;;-2.00;99.90;;;;;;5055547;28;20164;-80
2024/01/14 02:41:36;;;;;;;29.60;17.20;;;-1.70;99.90;;;;;;5054143;28;20198;-79
2024/01/14 02:44:02;;;;;;;33.20;17.47;;;-1.70;99.90;;;;;;5055266;28;20208;-79
2024/01/14 02:46:28;;;;;;;31.20;16.47;;;-1.80;99.90;;;;;;5055214;28;20215;-81
2024/01/14 02:48:54;;;;;;;29.27;17.53;;;-1.80;99.90;;;;;;5055769;28;20181;-77
2024/01/14 02:51:20;;;;;;;29.33;17.77;;;-2.10;99.90;;;;;;5056120;28;20173;-77
2024/01/14 02:53:46;;;;;;;27.47;17.17;;;-1.90;99.90;;;;;;5055075;28;20172;-79
2024/01/14 02:56:12;;;;;;;29.10;18.23;;;-1.80;99.90;;;;;;5055786;28;20204;-79
2024/01/14 02:58:38;;;;;;;31.90;17.37;;;-2.00;99.90;;;;;;5055882;28;20173;-78
2024/01/14 03:01:05;;;;;;;30.30;18.40;;;-1.90;99.90;;;;;;5054497;28;20184;-80
2024/01/14 03:03:31;;;;;;;28.47;18.27;;;-2.00;99.90;;;;;;5055352;28;20245;-79
2024/01/14 03:05:57;;;;;;;33.23;18.33;;;-2.10;99.90;;;;;;5056162;28;20250;-79
2024/01/14 03:08:23;;;;;;;29.43;17.70;;;-2.10;99.90;;;;;;5063205;28;20191;-78
2024/01/14 03:10:49;;;;;;;32.87;18.27;;;-2.00;99.90;;;;;;5066406;28;20239;-78
2024/01/14 03:13:16;;;;;;;29.23;17.47;;;-2.20;99.90;;;;;;5065189;28;20176;-80
2024/01/14 03:15:45;;;;;;;29.47;17.20;;;-1.90;99.90;;;;;;5057764;28;20183;-78
2024/01/14 03:18:15;;;;;;;28.90;17.67;;;-2.10;99.90;;;;;;5061902;28;20172;-77
2024/01/14 03:20:42;;;;;;;31.33;18.27;;;-2.20;99.90;;;;;;5073538;28;20168;-79
2024/01/14 03:23:08;;;;;;;29.93;17.03;;;-2.10;99.90;;;;;;5059804;28;20209;-79
2024/01/14 03:25:34;;;;;;;30.87;17.77;;;-2.10;99.90;;;;;;5054348;28;20591;-80
2024/01/14 03:28:00;;;;;;;28.43;17.07;;;-2.00;99.90;;;;;;5054999;28;20168;-81
2024/01/14 03:30:25;;;;;;;28.57;16.93;;;-2.10;99.90;;;;;;5056372;28;20204;-78
2024/01/14 03:32:51;;;;;;;28.33;16.80;;;-2.00;99.90;;;;;;5064509;28;20524;-77
2024/01/14 03:35:17;;;;;;;27.90;16.33;;;-2.30;99.90;;;;;;5055379;28;20176;-80
2024/01/14 03:37:43;;;;;;;31.00;17.07;;;-2.40;99.90;;;;;;5057169;28;20176;-79
2024/01/14 03:40:09;;;;;;;27.83;16.17;;;-2.50;99.90;;;;;;5066380;28;20194;-78
2024/01/14 03:42:36;;;;;;;31.07;17.97;;;-2.50;99.90;;;;;;5072451;28;20222;-78
2024/01/14 03:45:02;;;;;;;25.50;15.80;;;-2.50;99.90;;;;;;5055329;28;20168;-78
2024/01/14 03:47:28;;;;;;;28.30;17.40;;;-2.60;99.90;;;;;;5054175;28;20211;-77
2024/01/14 03:49:54;;;;;;;26.90;16.37;;;-2.70;99.90;;;;;;5053819;28;20180;-78
2024/01/14 03:52:20;;;;;;;26.30;15.83;;;-2.40;99.90;;;;;;5054187;28;20263;-81
2024/01/14 03:54:45;;;;;;;28.77;16.30;;;-2.60;99.90;;;;;;5055655;28;20180;-80
2024/01/14 03:57:11;;;;;;;27.17;17.00;;;-2.60;99.90;;;;;;5073421;28;20239;-77
2024/01/14 03:59:38;;;;;;;25.73;15.63;;;-2.60;99.90;;;;;;5060314;28;20187;-80
2024/01/14 04:02:04;;;;;;;29.17;16.87;;;-2.80;99.90;;;;;;5054540;28;20240;-79
2024/01/14 04:04:30;;;;;;;27.30;16.90;;;-2.40;99.90;;;;;;5054944;28;20255;-78
2024/01/14 04:06:55;;;;;;;28.23;16.93;;;-2.60;99.90;;;;;;5057315;28;20705;-76
2024/01/14 04:09:21;;;;;;;26.33;16.50;;;-2.70;99.90;;;;;;5066186;28;20717;-76
2024/01/14 04:11:47;;;;;;;26.30;15.97;;;-2.50;99.90;;;;;;5061690;28;20666;-77
2024/01/14 04:14:13;;;;;;;29.90;16.90;;;-2.80;99.90;;;;;;5059151;28;20172;-78
2024/01/14 04:16:42;;;;;;;24.13;16.07;;;-2.70;99.90;;;;;;5055204;28;20535;-79
2024/01/14 04:19:08;;;;;;;24.63;16.37;;;-2.90;99.90;;;;;;5058908;28;20519;-78
2024/01/14 04:21:34;;;;;;;28.67;16.17;;;-2.60;99.90;;;;;;5044502;28;20275;-78
2024/01/14 04:24:02;;;;;;;26.87;15.93;;;-2.80;99.90;;;;;;5039694;28;20609;-78
2024/01/14 04:26:28;;;;;;;31.30;16.80;;;-3.00;99.90;;;;;;5044413;28;20171;-78
2024/01/14 04:28:54;;;;;;;27.13;16.47;;;-2.70;99.90;;;;;;5046999;28;20212;-77
2024/01/14 04:31:20;;;;;;;29.57;16.80;;;-3.00;99.90;;;;;;5034468;28;20207;-78
2024/01/14 04:33:47;;;;;;;26.23;15.80;;;-2.90;99.90;;;;;;5033557;28;20208;-77
2024/01/14 04:36:13;;;;;;;25.37;15.97;;;-2.80;99.90;;;;;;5034817;28;20724;-78
2024/01/14 04:38:39;;;;;;;31.30;16.03;;;-3.10;99.90;;;;;;5033479;28;20181;-79
2024/01/14 04:41:05;;;;;;;24.80;16.60;;;-3.00;99.90;;;;;;5033784;28;20645;-78
2024/01/14 04:43:31;;;;;;;26.33;15.87;;;-3.20;99.90;;;;;;5033597;28;20244;-78
2024/01/14 04:45:57;;;;;;;30.17;16.60;;;-3.10;99.90;;;;;;5033524;28;20255;-78
2024/01/14 04:48:22;;;;;;;28.77;16.63;;;-3.10;99.90;;;;;;5033005;28;20263;-78
2024/01/14 04:50:49;;;;;;;26.70;16.27;;;-3.30;99.90;;;;;;5033655;28;20705;-78
2024/01/14 04:53:15;;;;;;;27.37;16.63;;;-3.30;99.90;;;;;;5043763;28;20730;-77
2024/01/14 04:55:41;;;;;;;29.23;16.73;;;-3.30;99.90;;;;;;5050117;28;20168;-78
2024/01/14 04:58:07;;;;;;;29.83;17.10;;;-3.30;99.90;;;;;;5035919;28;20256;-79
2024/01/14 05:00:32;;;;;;;28.50;17.50;;;-3.30;99.90;;;;;;5034503;28;20179;-78
2024/01/14 05:02:58;;;;;;;28.37;16.37;;;-3.50;99.90;;;;;;5035121;28;20251;-80
2024/01/14 05:05:24;;;;;;;27.67;17.80;;;-3.30;99.90;;;;;;5033424;28;20255;-77
2024/01/14 05:07:49;;;;;;;26.63;16.53;;;-3.30;99.90;;;;;;5033213;28;20180;-78
2024/01/14 05:10:15;;;;;;;27.40;17.60;;;-3.60;99.90;;;;;;5033477;28;20576;-80
2024/01/14 05:12:41;;;;;;;27.20;16.30;;;-3.60;99.90;;;;;;5036485;28;20283;-79
2024/01/14 05:15:07;;;;;;;26.70;16.77;;;-3.50;99.90;;;;;;5037015;28;20242;-77
2024/01/14 05:17:34;;;;;;;27.73;16.63;;;-3.50;99.90;;;;;;5038707;28;20176;-78
2024/01/14 05:19:59;;;;;;;27.03;16.73;;;-3.40;99.90;;;;;;5032598;28;20176;-80
2024/01/14 05:22:26;;;;;;;25.97;16.43;;;-3.70;99.90;;;;;;5033356;28;20211;-78
2024/01/14 05:24:52;;;;;;;27.50;17.10;;;-3.80;99.90;;;;;;5033746;28;20725;-79
2024/01/14 05:27:18;;;;;;;31.57;18.03;;;-3.80;99.90;;;;;;5034182;28;20180;-78
2024/01/14 05:29:44;;;;;;;32.37;17.70;;;-3.60;99.90;;;;;;5033056;28;20248;-79
2024/01/14 05:32:16;;;;;;;28.43;17.03;;;-3.50;99.90;;;;;;5033241;28;20176;-77
2024/01/14 05:34:44;;;;;;;34.23;17.73;;;-3.50;99.90;;;;;;5033791;28;20168;-78
2024/01/14 05:37:10;;;;;;;32.20;18.37;;;-3.50;99.90;;;;;;5034993;28;20579;-75
2024/01/14 05:39:36;;;;;;;28.23;16.67;;;-3.50;99.90;;;;;;5036222;28;20165;-77
2024/01/14 05:42:03;;;;;;;31.97;19.67;;;-3.40;99.90;;;;;;5040831;28;20176;-78
2024/01/14 05:44:32;;;;;;;33.57;18.97;;;-3.30;99.90;;;;;;5040836;28;20592;-77
2024/01/14 05:46:58;;;;;;;31.53;18.97;;;-3.70;99.90;;;;;;5039947;28;20169;-79
2024/01/14 05:49:23;;;;;;;37.97;18.47;;;-3.60;99.90;;;;;;5039241;28;20219;-78
2024/01/14 05:51:49;;;;;;;28.43;16.97;;;-3.80;99.90;;;;;;5038609;28;20182;-78
2024/01/14 05:54:16;;;;;;;32.27;18.07;;;-3.40;99.90;;;;;;5051507;28;20161;-80
2024/01/14 05:56:42;;;;;;;32.90;18.33;;;-3.80;99.90;;;;;;5048834;28;20227;-78
2024/01/14 05:59:08;;;;;;;32.87;17.07;;;-3.70;99.90;;;;;;5043189;28;20236;-78
2024/01/14 06:01:33;;;;;;;30.53;17.57;;;-3.60;99.90;;;;;;5045499;28;20230;-79
2024/01/14 06:03:59;;;;;;;30.77;17.60;;;-3.80;99.90;;;;;;5045982;28;20212;-81
2024/01/14 06:06:25;;;;;;;34.30;17.50;;;-3.70;99.90;;;;;;5037676;28;20194;-78
2024/01/14 06:08:51;;;;;;;28.03;17.47;;;-3.40;99.90;;;;;;5036796;28;20191;-78
2024/01/14 06:11:17;;;;;;;28.20;16.87;;;-3.40;99.90;;;;;;5036555;28;20232;-79
2024/01/14 06:13:43;;;;;;;31.03;16.93;;;-3.60;99.90;;;;;;5044858;28;20168;-78
2024/01/14 06:16:09;;;;;;;27.57;17.33;;;-3.60;99.90;;;;;;5035382;28;20179;-79
2024/01/14 06:18:36;;;;;;;27.70;17.30;;;-3.30;99.90;;;;;;5035827;28;20184;-77
2024/01/14 06:21:03;;;;;;;26.07;17.07;;;-3.30;99.90;;;;;;5035678;28;20319;-77
2024/01/14 06:23:29;;;;;;;28.70;17.07;;;-3.30;99.90;;;;;;5044555;28;20227;-79
2024/01/14 06:25:56;;;;;;;29.47;16.87;;;-3.60;99.90;;;;;;5051154;28;20219;-77
2024/01/14 06:28:22;;;;;;;30.90;16.40;;;-3.30;99.90;;;;;;5035729;28;20187;-78
2024/01/14 06:30:48;;;;;;;24.93;16.17;;;-3.50;99.90;;;;;;5036035;28;20173;-80
2024/01/14 06:33:14;;;;;;;28.90;16.60;;;-3.30;99.90;;;;;;5035403;28;20176;-79
2024/01/14 06:35:40;;;;;;;25.37;15.63;;;-3.50;99.90;;;;;;5035277;28;20227;-80
2024/01/14 06:38:10;;;;;;;30.97;16.90;;;-3.30;99.90;;;;;;5046383;28;20183;-78
2024/01/14 06:40:36;;;;;;;27.57;16.43;;;-3.50;99.90;;;;;;5055467;28;20631;-78
2024/01/14 06:43:02;;;;;;;24.20;13.80;;;-3.40;99.90;;;;;;5055464;28;20338;-79
2024/01/14 06:45:28;;;;;;;24.00;14.67;;;-3.40;99.90;;;;;;5055517;28;20168;-78
2024/01/14 06:47:54;;;;;;;27.03;15.80;;;-3.20;99.90;;;;;;5055515;28;20176;-76
2024/01/14 06:50:20;;;;;;;26.97;15.23;;;-3.20;99.90;;;;;;5055861;28;20229;-78
2024/01/14 06:52:45;;;;;;;22.53;14.20;;;-3.30;99.90;;;;;;5073343;28;20198;-79
2024/01/14 06:55:15;;;;;;;23.97;14.10;;;-3.40;99.90;;;;;;5065358;28;20168;-77
2024/01/14 06:57:41;;;;;;;25.53;14.23;;;-3.30;99.90;;;;;;5058887;28;20179;-78
2024/01/14 07:00:08;;;;;;;26.20;15.07;;;-3.20;99.90;;;;;;5055229;28;20168;-81
2024/01/14 07:02:35;;;;;;;21.97;14.33;;;-3.10;99.90;;;;;;5055342;28;20199;-77
2024/01/14 07:05:01;;;;;;;23.17;14.37;;;-3.10;99.90;;;;;;5062307;28;20184;-79
2024/01/14 07:07:27;;;;;;;23.17;15.17;;;-3.10;99.90;;;;;;5066734;28;20533;-79
2024/01/14 07:09:55;;;;;;;24.07;15.73;;;-3.10;99.90;;;;;;5056044;28;20172;-79
2024/01/14 07:12:21;;;;;;;24.43;15.13;;;-2.80;99.90;;;;;;5055648;28;20335;-79
2024/01/14 07:14:46;;;;;;;23.97;15.53;;;-2.90;99.90;;;;;;5053584;28;20318;-79
2024/01/14 07:17:12;;;;;;;25.93;15.97;;;-2.70;99.90;;;;;;5055155;28;20180;-80
2024/01/14 07:19:38;;;;;;;24.50;15.50;;;-3.10;99.90;;;;;;5055317;28;20172;-81
2024/01/14 07:22:06;;;;;;;28.83;16.40;;;-3.00;99.90;;;;;;5054848;28;20168;-79
2024/01/14 07:24:33;;;;;;;30.53;16.90;;;-2.90;99.90;;;;;;5054730;28;20192;-78
2024/01/14 07:27:01;;;;;;;27.40;16.07;;;-2.80;99.90;;;;;;5054693;28;20183;-78
2024/01/14 07:29:28;;;;;;;29.50;17.10;;;-2.80;99.90;;;;;;5056966;28;20195;-78
2024/01/14 07:31:53;;;;;;;34.40;17.83;;;-2.80;99.90;;;;;;5060884;28;20211;-77
2024/01/14 07:34:19;;;;;;;29.40;17.73;;;-2.60;99.90;;;;;;5057110;28;20685;-80
2024/01/14 07:36:45;;;;;;;27.57;16.40;;;-2.50;99.90;;;;;;5054967;28;20184;-78
2024/01/14 07:39:10;;;;;;;29.50;17.00;;;-2.50;99.90;;;;;;5054268;28;20180;-79
2024/01/14 07:41:39;;;;;;;32.40;17.67;;;-2.70;99.90;;;;;;5053497;28;20172;-77
2024/01/14 07:44:05;;;;;;;30.27;17.60;;;-2.60;99.90;;;;;;5054504;28;20208;-78
2024/01/14 07:46:31;;;;;;;27.77;17.47;;;-2.60;99.90;;;;;;5055764;28;20196;-78
2024/01/14 07:48:57;;;;;;;32.57;18.40;;;-2.30;99.90;;;;;;5059712;28;20194;-79
2024/01/14 07:51:24;;;;;;;35.70;17.93;;;-2.40;99.90;;;;;;5066689;28;20257;-81
2024/01/14 07:53:49;;;;;;;36.40;20.40;;;-2.30;99.90;;;;;;5068626;28;20244;-78
2024/01/14 07:56:15;;;;;;;34.63;18.57;;;-2.50;99.90;;;;;;5061172;28;20227;-77
2024/01/14 07:58:43;;;;;;;31.57;17.87;;;-2.50;99.90;;;;;;5055135;28;20175;-79
2024/01/14 08:01:08;;;;;;;33.67;19.13;;;-2.70;99.90;;;;;;5053769;28;20203;-79
2024/01/14 08:03:35;;;;;;;32.77;19.73;;;-2.60;99.90;;;;;;5053519;28;20247;-78
2024/01/14 08:06:01;;;;;;;33.90;18.83;;;-2.30;99.90;;;;;;5055302;28;20272;-79
2024/01/14 08:08:27;;;;;;;32.70;19.17;;;-2.30;99.90;;;;;;5064100;28;20168;-79
2024/01/14 08:10:53;;;;;;;35.47;19.70;;;-2.30;99.90;;;;;;5064322;28;20233;-76
2024/01/14 08:13:19;;;;;;;36.07;19.90;;;-2.20;99.90;;;;;;5060924;28;20220;-79
2024/01/14 08:15:45;;;;;;;31.13;19.70;;;-2.30;99.90;;;;;;5053870;28;20169;-79
2024/01/14 08:18:11;;;;;;;36.13;18.83;;;-2.10;99.90;;;;;;5054130;28;20204;-76
2024/01/14 08:20:37;;;;;;;31.10;19.47;;;-2.30;99.90;;;;;;5055545;28;20226;-79
2024/01/14 08:23:03;;;;;;;36.50;20.97;;;-2.40;99.90;;;;;;5070835;28;20208;-80
2024/01/14 08:25:28;;;;;;;32.27;20.13;;;-2.40;99.90;;;;;;5074646;28;20180;-78
2024/01/14 08:27:55;;;;;;;35.70;21.30;;;-2.20;99.90;;;;;;5062961;28;20655;-78
2024/01/14 08:30:21;;;;;;;51.73;24.87;;;-2.10;99.90;;;;;;5057270;28;20173;-79
2024/01/14 08:32:47;;;;;;;47.53;25.47;;;-2.40;99.90;;;;;;5066680;28;20180;-80
2024/01/14 08:35:13;;;;;;;48.30;25.83;;;-2.30;99.90;;;;;;5064651;28;20208;-77
2024/01/14 08:37:43;;;;;;;40.90;22.37;;;-2.30;99.90;;;;;;5054325;28;20259;-79
2024/01/14 08:40:12;;;;;;;38.97;21.50;;;-2.30;99.90;;;;;;5054264;28;20169;-78
2024/01/14 08:42:43;;;;;;;37.03;22.67;;;-2.20;99.90;;;;;;5063227;28;20238;-79
2024/01/14 08:45:11;;;;;;;35.93;21.67;;;-2.00;99.90;;;;;;5054984;28;20162;-77
2024/01/14 08:47:37;;;;;;;33.57;20.33;;;-1.70;99.90;;;;;;5060069;28;20181;-77
2024/01/14 08:50:03;;;;;;;36.47;20.67;;;-1.20;99.90;;;;;;5064589;28;20176;-77
2024/01/14 08:52:29;;;;;;;32.07;20.17;;;-1.50;99.90;;;;;;5058344;28;20539;-78
2024/01/14 08:54:55;;;;;;;32.27;21.27;;;-1.60;99.90;;;;;;5063203;28;20245;-75
2024/01/14 08:57:20;;;;;;;33.23;20.50;;;-1.40;99.90;;;;;;5056901;28;20216;-79
2024/01/14 08:59:46;;;;;;;36.00;21.17;;;-1.80;99.90;;;;;;5058838;28;20200;-78
2024/01/14 09:02:12;;;;;;;37.93;22.57;;;-1.70;99.90;;;;;;5056159;28;20172;-77
2024/01/14 09:04:38;;;;;;;34.17;21.07;;;-1.80;99.90;;;;;;5059969;28;20180;-76
2024/01/14 09:07:03;;;;;;;30.23;20.03;;;-1.20;99.90;;;;;;5060924;28;20226;-76
2024/01/14 09:09:29;;;;;;;32.83;19.17;;;-1.60;99.90;;;;;;5054626;28;20184;-77
2024/01/14 09:11:56;;;;;;;34.80;19.67;;;-1.80;99.90;;;;;;5056156;28;20215;-77
2024/01/14 09:14:21;;;;;;;34.17;21.23;;;-1.50;99.90;;;;;;5051962;28;20176;-77
2024/01/14 09:16:48;;;;;;;35.80;20.97;;;-1.70;99.90;;;;;;5052266;28;20192;-77
2024/01/14 09:19:14;;;;;;;35.57;21.17;;;-1.40;99.90;;;;;;5051962;28;20218;-75
2024/01/14 09:21:40;;;;;;;40.43;21.00;;;-1.40;99.90;;;;;;5052846;28;20706;-78
2024/01/14 09:24:06;;;;;;;32.53;21.03;;;-1.40;99.90;;;;;;5052408;28;20289;-80
2024/01/14 09:26:32;;;;;;;32.70;20.33;;;-1.30;99.90;;;;;;5052568;28;20543;-77
2024/01/14 09:28:57;;;;;;;30.97;19.37;;;-1.50;99.90;;;;;;5052723;28;20179;-77
2024/01/14 09:31:23;;;;;;;37.60;20.70;;;-1.50;99.90;;;;;;5052621;28;20184;-79
2024/01/14 09:33:49;;;;;;;38.17;22.23;;;-1.30;99.90;;;;;;5052035;28;20276;-76
2024/01/14 09:36:18;;;;;;;34.50;20.50;;;-1.20;99.90;;;;;;5054043;28;20208;-75
2024/01/14 09:38:44;;;;;;;36.77;20.40;;;-1.60;99.90;;;;;;5059187;28;20200;-77
2024/01/14 09:41:18;;;;;;;38.70;22.17;;;-1.30;99.90;;;;;;5061552;28;20174;-77
2024/01/14 09:43:49;;;;;;;39.53;22.23;;;-1.60;99.90;;;;;;5053658;28;20699;-76
2024/01/14 09:46:16;;;;;;;37.50;21.87;;;-1.70;99.90;;;;;;5052598;28;20254;-78
2024/01/14 09:48:44;;;;;;;40.37;22.50;;;-1.20;99.90;;;;;;5052828;28;20173;-78
2024/01/14 09:51:10;;;;;;;35.70;22.40;;;-1.20;99.90;;;;;;5052619;28;20175;-78
2024/01/14 09:53:37;;;;;;;41.23;21.60;;;-1.10;99.90;;;;;;5053166;28;20223;-76
2024/01/14 09:56:07;;;;;;;38.80;21.17;;;-1.00;99.90;;;;;;5053564;28;20629;-78
2024/01/14 09:58:34;;;;;;;39.57;21.37;;;-0.90;99.90;;;;;;5052729;28;20178;-77
2024/01/14 10:01:03;;;;;;;34.27;20.43;;;-1.00;99.90;;;;;;5054251;28;20302;-78
2024/01/14 10:03:30;;;;;;;42.97;21.13;;;-0.60;99.90;;;;;;5052523;28;20247;-78
2024/01/14 10:05:56;;;;;;;35.20;20.57;;;-0.80;99.90;;;;;;5056968;28;20169;-77
2024/01/14 10:08:22;;;;;;;35.47;21.83;;;-0.90;99.90;;;;;;5048195;28;20186;-79
2024/01/14 10:10:54;;;;;;;43.13;22.60;;;-0.70;99.90;;;;;;5013178;28;20182;-77
2024/01/14 10:13:23;;;;;;;41.20;22.20;;;-0.90;99.90;;;;;;5012501;28;20198;-78
2024/01/14 10:15:49;;;;;;;37.47;21.53;;;-1.10;99.90;;;;;;5012719;28;20186;-79
2024/01/14 10:18:16;;;;;;;42.80;21.70;;;-1.10;99.90;;;;;;5014066;28;20243;-79
2024/01/14 10:20:42;;;;;;;38.17;21.63;;;-0.90;99.90;;;;;;5023182;28;20182;-78
2024/01/14 10:23:08;;;;;;;37.57;21.67;;;-0.90;99.90;;;;;;5020482;28;20301;-78
2024/01/14 10:25:34;;;;;;;41.10;22.50;;;-0.90;99.90;;;;;;5013178;28;20182;-78
2024/01/14 10:28:04;;;;;;;41.20;22.07;;;-1.20;99.90;;;;;;5016970;28;20262;-79
2024/01/14 10:30:30;;;;;;;39.80;22.70;;;-1.20;99.90;;;;;;5016978;28;20220;-78
2024/01/14 10:32:55;;;;;;;39.33;22.70;;;-1.20;99.90;;;;;;5015906;28;20659;-79
2024/01/14 10:35:24;;;;;;;39.37;22.63;;;-1.00;99.90;;;;;;5014903;28;20173;-78
2024/01/14 10:37:50;;;;;;;41.67;23.50;;;-1.30;99.90;;;;;;5016775;28;20171;-79
2024/01/14 10:40:17;;;;;;;41.53;23.07;;;-0.70;99.90;;;;;;5017278;28;20188;-80
2024/01/14 10:42:44;;;;;;;41.73;23.90;;;-1.10;99.90;;;;;;5016315;28;20200;-76
2024/01/14 10:45:10;;;;;;;40.77;23.13;;;-1.00;99.90;;;;;;5018131;28;20215;-77
2024/01/14 10:47:36;;;;;;;41.20;23.20;;;-0.90;99.90;;;;;;5032269;28;20646;-79
2024/01/14 10:50:03;;;;;;;40.13;22.93;;;-0.70;99.90;;;;;;5035567;28;20278;-78
2024/01/14 10:52:38;;;;;;;40.13;23.73;;;-1.00;99.90;;;;;;5034275;28;20232;-76
2024/01/14 10:55:40;;;;;;;43.47;23.67;;;-0.90;99.90;;;;;;5037699;28;20173;-78
2024/01/14 10:58:07;;;;;;;41.57;23.17;;;-0.90;99.90;;;;;;5036251;28;20156;-79
2024/01/14 11:00:36;;;;;;;40.80;22.77;;;-0.60;99.90;;;;;;5036799;28;20170;-79
2024/01/14 11:03:06;;;;;;;43.30;23.87;;;-0.50;99.90;;;;;;5035991;28;20217;-78
2024/01/14 11:05:33;;;;;;;41.17;23.67;;;-0.60;99.90;;;;;;5040650;28;20177;-78
2024/01/14 11:08:03;;;;;;;41.33;22.83;;;-0.90;99.90;;;;;;5037588;28;20176;-77
2024/01/14 11:10:31;;;;;;;45.87;25.00;;;-0.80;99.90;;;;;;5037194;28;20178;-77
2024/01/14 11:13:25;;;;;;;43.50;24.33;;;-0.60;99.90;;;;;;5038739;28;20218;-77
2024/01/14 11:16:13;;;;;;;40.20;23.73;;;-0.90;99.90;;;;;;5037230;28;20174;-76
2024/01/14 11:18:57;;;;;;;40.97;22.33;;;-0.20;99.90;;;;;;5040181;28;20230;-78
2024/01/14 11:21:29;;;;;;;44.10;23.70;;;-0.50;99.90;;;;;;5037767;28;20175;-78
2024/01/14 11:23:57;;;;;;;40.57;21.13;;;-0.50;99.90;;;;;;5040471;28;20213;-77
2024/01/14 11:26:24;;;;;;;40.90;22.77;;;-0.80;99.90;;;;;;5043378;28;20181;-77
2024/01/14 11:28:54;;;;;;;44.63;23.67;;;-0.50;99.90;;;;;;5041175;28;20174;-77
2024/01/14 11:31:20;;;;;;;47.40;24.40;;;-0.50;99.90;;;;;;5044365;28;20518;-77
2024/01/14 11:33:46;;;;;;;43.30;23.93;;;0.00;99.90;;;;;;5042916;28;20167;-78
2024/01/14 11:36:13;;;;;;;43.20;23.80;;;0.20;99.90;;;;;;5039972;28;20587;-78
2024/01/14 11:38:45;;;;;;;41.87;23.33;;;-0.10;99.90;;;;;;5040122;28;20205;-77
2024/01/14 11:41:31;;;;;;;37.87;22.43;;;0.00;99.90;;;;;;5041882;28;20258;-80
2024/01/14 11:44:10;;;;;;;42.70;24.20;;;0.10;99.90;;;;;;5039181;28;20673;-77
2024/01/14 11:46:48;;;;;;;44.53;24.43;;;-0.30;99.90;;;;;;5039037;28;20217;-78
2024/01/14 11:49:18;;;;;;;45.47;24.47;;;-0.80;99.90;;;;;;5036629;28;20249;-79
2024/01/14 11:51:59;;;;;;;44.23;25.63;;;-0.60;99.90;;;;;;5039080;28;20175;-78
2024/01/14 11:54:27;;;;;;;45.80;24.80;;;-0.70;99.90;;;;;;5038888;28;20173;-77
2024/01/14 11:56:53;;;;;;;41.87;24.40;;;-0.50;99.90;;;;;;5037831;28;20186;-77
2024/01/14 11:59:19;;;;;;;39.23;23.30;;;-0.30;99.90;;;;;;5041931;28;20531;-77
2024/01/14 12:01:45;;;;;;;38.17;23.13;;;-0.20;99.90;;;;;;5040880;28;20550;-78
2024/01/14 12:04:11;;;;;;;42.13;23.10;;;-0.30;99.90;;;;;;5040498;28;20233;-77
2024/01/14 12:06:42;;;;;;;41.77;25.00;;;-0.50;99.90;;;;;;5034844;28;20643;-79
2024/01/14 12:09:08;;;;;;;40.50;22.80;;;-0.20;99.90;;;;;;5034060;28;20208;-80
2024/01/14 12:11:36;;;;;;;38.67;22.80;;;-0.50;99.90;;;;;;5034161;28;20308;-78
2024/01/14 12:14:03;;;;;;;40.83;23.70;;;-0.30;99.90;;;;;;5034969;28;20268;-77
2024/01/14 12:16:30;;;;;;;41.73;24.67;;;-0.20;99.90;;;;;;5034139;28;20178;-76
2024/01/14 12:18:56;;;;;;;39.20;23.17;;;-0.20;99.90;;;;;;5057259;28;20178;-77
2024/01/14 12:21:22;;;;;;;44.60;24.87;;;-0.10;99.90;;;;;;5063979;28;20175;-78
2024/01/14 12:23:49;;;;;;;38.90;23.53;;;0.00;99.90;;;;;;5053798;28;20205;-76
2024/01/14 12:26:15;;;;;;;42.40;24.53;;;-0.20;99.90;;;;;;5053359;28;20175;-77